<?xml version="1.0" encoding="UTF-8" standalone="no" ?>
<gpx xmlns="http://www.topografix.com/GPX/1/1" xmlns:xsi="http://www.w3.org/2001/XMLSchema-instance" xsi:schemaLocation="http://www.topografix.com/GPX/1/1 http://www.topografix.com/GPX/1/1/gpx.xsd" version="1.1" creator="VisuGPX - https://www.visugpx.com">
  <metadata>
    <name>rando du 25-03-21</name>
  </metadata>
  <trk>
    <name><![CDATA[rando du 25-03-21_1]]></name>
    <trkseg>
      <trkpt lat="45.41446" lon="5.55602">
        <ele>497</ele>
        <time>2007-06-01T11:21:28Z</time>
      </trkpt>
      <trkpt lat="45.41358" lon="5.55676">
        <ele>497</ele>
        <time>2007-06-01T11:21:31Z</time>
      </trkpt>
      <trkpt lat="45.41211" lon="5.55532">
        <ele>490</ele>
        <time>2007-06-01T11:21:43Z</time>
      </trkpt>
      <trkpt lat="45.41212" lon="5.55492">
        <ele>484</ele>
        <time>2007-06-01T11:21:49Z</time>
      </trkpt>
      <trkpt lat="45.41296" lon="5.55399">
        <ele>484</ele>
        <time>2007-06-01T11:21:55Z</time>
      </trkpt>
      <trkpt lat="45.41296" lon="5.5495">
        <ele>477</ele>
        <time>2007-06-01T11:22:16Z</time>
      </trkpt>
      <trkpt lat="45.41349" lon="5.54873">
        <ele>473</ele>
        <time>2007-06-01T11:22:20Z</time>
      </trkpt>
      <trkpt lat="45.40998" lon="5.54744">
        <ele>472</ele>
        <time>2007-06-01T11:23:54Z</time>
      </trkpt>
      <trkpt lat="45.40841" lon="5.54736">
        <ele>479</ele>
        <time>2007-06-01T11:24:54Z</time>
      </trkpt>
      <trkpt lat="45.40768" lon="5.5468">
        <ele>486</ele>
        <time>2007-06-01T11:25:34Z</time>
      </trkpt>
      <trkpt lat="45.40522" lon="5.54599">
        <ele>486</ele>
        <time>2007-06-01T11:26:53Z</time>
      </trkpt>
      <trkpt lat="45.40599" lon="5.54509">
        <ele>489</ele>
        <time>2007-06-01T11:27:27Z</time>
      </trkpt>
      <trkpt lat="45.40882" lon="5.54371">
        <ele>497</ele>
        <time>2007-06-01T11:29:12Z</time>
      </trkpt>
      <trkpt lat="45.41123" lon="5.54154">
        <ele>524</ele>
        <time>2007-06-01T11:32:11Z</time>
      </trkpt>
      <trkpt lat="45.41325" lon="5.54128">
        <ele>525</ele>
        <time>2007-06-01T11:33:18Z</time>
      </trkpt>
      <trkpt lat="45.41272" lon="5.53932">
        <ele>532</ele>
        <time>2007-06-01T11:34:00Z</time>
      </trkpt>
      <trkpt lat="45.41192" lon="5.53842">
        <ele>535</ele>
        <time>2007-06-01T11:34:32Z</time>
      </trkpt>
      <trkpt lat="45.40828" lon="5.53764">
        <ele>551</ele>
        <time>2007-06-01T11:37:02Z</time>
      </trkpt>
      <trkpt lat="45.40791" lon="5.53723">
        <ele>550</ele>
        <time>2007-06-01T11:37:26Z</time>
      </trkpt>
      <trkpt lat="45.40784" lon="5.53647">
        <ele>553</ele>
        <time>2007-06-01T11:37:48Z</time>
      </trkpt>
      <trkpt lat="45.4074" lon="5.5364">
        <ele>550</ele>
        <time>2007-06-01T11:37:58Z</time>
      </trkpt>
      <trkpt lat="45.40439" lon="5.53798">
        <ele>530</ele>
        <time>2007-06-01T11:39:07Z</time>
      </trkpt>
      <trkpt lat="45.40427" lon="5.53739">
        <ele>531</ele>
        <time>2007-06-01T11:39:21Z</time>
      </trkpt>
      <trkpt lat="45.40624" lon="5.53577">
        <ele>505</ele>
        <time>2007-06-01T11:39:56Z</time>
      </trkpt>
      <trkpt lat="45.40648" lon="5.53497">
        <ele>498</ele>
        <time>2007-06-01T11:40:04Z</time>
      </trkpt>
      <trkpt lat="45.40912" lon="5.53379">
        <ele>498</ele>
        <time>2007-06-01T11:41:11Z</time>
      </trkpt>
      <trkpt lat="45.41195" lon="5.53406">
        <ele>514</ele>
        <time>2007-06-01T11:43:10Z</time>
      </trkpt>
      <trkpt lat="45.41232" lon="5.53435">
        <ele>519</ele>
        <time>2007-06-01T11:43:33Z</time>
      </trkpt>
      <trkpt lat="45.41461" lon="5.53296">
        <ele>527</ele>
        <time>2007-06-01T11:45:13Z</time>
      </trkpt>
      <trkpt lat="45.4172" lon="5.53348">
        <ele>541</ele>
        <time>2007-06-01T11:46:54Z</time>
      </trkpt>
      <trkpt lat="45.41847" lon="5.53329">
        <ele>538</ele>
        <time>2007-06-01T11:47:13Z</time>
      </trkpt>
      <trkpt lat="45.41877" lon="5.53229">
        <ele>532</ele>
        <time>2007-06-01T11:47:35Z</time>
      </trkpt>
      <trkpt lat="45.41925" lon="5.53214">
        <ele>544</ele>
        <time>2007-06-01T11:48:12Z</time>
      </trkpt>
      <trkpt lat="45.42038" lon="5.53293">
        <ele>545</ele>
        <time>2007-06-01T11:49:32Z</time>
      </trkpt>
      <trkpt lat="45.42052" lon="5.53425">
        <ele>552</ele>
        <time>2007-06-01T11:50:15Z</time>
      </trkpt>
      <trkpt lat="45.42166" lon="5.53514">
        <ele>556</ele>
        <time>2007-06-01T11:51:00Z</time>
      </trkpt>
      <trkpt lat="45.42172" lon="5.53608">
        <ele>562</ele>
        <time>2007-06-01T11:51:24Z</time>
      </trkpt>
      <trkpt lat="45.42221" lon="5.53751">
        <ele>564</ele>
        <time>2007-06-01T11:51:57Z</time>
      </trkpt>
      <trkpt lat="45.42186" lon="5.53969">
        <ele>564</ele>
        <time>2007-06-01T11:52:30Z</time>
      </trkpt>
      <trkpt lat="45.42244" lon="5.53952">
        <ele>571</ele>
        <time>2007-06-01T11:52:47Z</time>
      </trkpt>
      <trkpt lat="45.42388" lon="5.54209">
        <ele>578</ele>
        <time>2007-06-01T11:54:27Z</time>
      </trkpt>
      <trkpt lat="45.42515" lon="5.54324">
        <ele>584</ele>
        <time>2007-06-01T11:55:32Z</time>
      </trkpt>
      <trkpt lat="45.42865" lon="5.54414">
        <ele>621</ele>
        <time>2007-06-01T11:59:49Z</time>
      </trkpt>
      <trkpt lat="45.43028" lon="5.54354">
        <ele>637</ele>
        <time>2007-06-01T12:01:59Z</time>
      </trkpt>
      <trkpt lat="45.43352" lon="5.54127">
        <ele>669</ele>
        <time>2007-06-01T12:07:05Z</time>
      </trkpt>
      <trkpt lat="45.43656" lon="5.54238">
        <ele>704</ele>
        <time>2007-06-01T12:11:53Z</time>
      </trkpt>
      <trkpt lat="45.43795" lon="5.54226">
        <ele>711</ele>
        <time>2007-06-01T12:12:59Z</time>
      </trkpt>
      <trkpt lat="45.43904" lon="5.54125">
        <ele>722</ele>
        <time>2007-06-01T12:14:15Z</time>
      </trkpt>
      <trkpt lat="45.43921" lon="5.54142">
        <ele>721</ele>
        <time>2007-06-01T12:14:27Z</time>
      </trkpt>
      <trkpt lat="45.43935" lon="5.54491">
        <ele>719</ele>
        <time>2007-06-01T12:15:59Z</time>
      </trkpt>
      <trkpt lat="45.43825" lon="5.5467">
        <ele>736</ele>
        <time>2007-06-01T12:18:19Z</time>
      </trkpt>
      <trkpt lat="45.4379" lon="5.54645">
        <ele>740</ele>
        <time>2007-06-01T12:19:10Z</time>
      </trkpt>
      <trkpt lat="45.43526" lon="5.54775">
        <ele>798</ele>
        <time>2007-06-01T12:24:53Z</time>
      </trkpt>
      <trkpt lat="45.43498" lon="5.54701">
        <ele>798</ele>
        <time>2007-06-01T12:26:24Z</time>
      </trkpt>
      <trkpt lat="45.4341" lon="5.54634">
        <ele>746</ele>
        <time>2007-06-01T12:27:17Z</time>
      </trkpt>
      <trkpt lat="45.43323" lon="5.54653">
        <ele>739</ele>
        <time>2007-06-01T12:28:04Z</time>
      </trkpt>
      <trkpt lat="45.43225" lon="5.54614">
        <ele>698</ele>
        <time>2007-06-01T12:28:48Z</time>
      </trkpt>
      <trkpt lat="45.43126" lon="5.54467">
        <ele>671</ele>
        <time>2007-06-01T12:31:01Z</time>
      </trkpt>
      <trkpt lat="45.43085" lon="5.54319">
        <ele>645</ele>
        <time>2007-06-01T12:34:04Z</time>
      </trkpt>
      <trkpt lat="45.43357" lon="5.54128">
        <ele>669</ele>
        <time>2007-06-01T12:38:26Z</time>
      </trkpt>
      <trkpt lat="45.43644" lon="5.54237">
        <ele>709</ele>
        <time>2007-06-01T12:42:49Z</time>
      </trkpt>
      <trkpt lat="45.43794" lon="5.54226">
        <ele>709</ele>
        <time>2007-06-01T12:44:00Z</time>
      </trkpt>
      <trkpt lat="45.4393" lon="5.54129">
        <ele>718</ele>
        <time>2007-06-01T12:45:40Z</time>
      </trkpt>
      <trkpt lat="45.44028" lon="5.54267">
        <ele>708</ele>
        <time>2007-06-01T12:46:43Z</time>
      </trkpt>
      <trkpt lat="45.44271" lon="5.54351">
        <ele>656</ele>
        <time>2007-06-01T12:47:45Z</time>
      </trkpt>
      <trkpt lat="45.4435" lon="5.54447">
        <ele>651</ele>
        <time>2007-06-01T12:47:58Z</time>
      </trkpt>
      <trkpt lat="45.44469" lon="5.54744">
        <ele>645</ele>
        <time>2007-06-01T12:48:32Z</time>
      </trkpt>
      <trkpt lat="45.44709" lon="5.55102">
        <ele>612</ele>
        <time>2007-06-01T12:49:19Z</time>
      </trkpt>
      <trkpt lat="45.44836" lon="5.55002">
        <ele>595</ele>
        <time>2007-06-01T12:49:39Z</time>
      </trkpt>
      <trkpt lat="45.4491" lon="5.55027">
        <ele>595</ele>
        <time>2007-06-01T12:49:49Z</time>
      </trkpt>
      <trkpt lat="45.44883" lon="5.55213">
        <ele>598</ele>
        <time>2007-06-01T12:50:20Z</time>
      </trkpt>
      <trkpt lat="45.4492" lon="5.55285">
        <ele>602</ele>
        <time>2007-06-01T12:50:36Z</time>
      </trkpt>
      <trkpt lat="45.44916" lon="5.55472">
        <ele>600</ele>
        <time>2007-06-01T12:51:12Z</time>
      </trkpt>
      <trkpt lat="45.44941" lon="5.55525">
        <ele>595</ele>
        <time>2007-06-01T12:51:17Z</time>
      </trkpt>
      <trkpt lat="45.44937" lon="5.55649">
        <ele>586</ele>
        <time>2007-06-01T12:51:29Z</time>
      </trkpt>
      <trkpt lat="45.45009" lon="5.55795">
        <ele>586</ele>
        <time>2007-06-01T12:52:03Z</time>
      </trkpt>
      <trkpt lat="45.45149" lon="5.55946">
        <ele>592</ele>
        <time>2007-06-01T12:53:40Z</time>
      </trkpt>
      <trkpt lat="45.45233" lon="5.5594">
        <ele>617</ele>
        <time>2007-06-01T12:55:19Z</time>
      </trkpt>
      <trkpt lat="45.45261" lon="5.55987">
        <ele>617</ele>
        <time>2007-06-01T12:56:22Z</time>
      </trkpt>
      <trkpt lat="45.45263" lon="5.5612">
        <ele>621</ele>
        <time>2007-06-01T12:57:36Z</time>
      </trkpt>
      <trkpt lat="45.45335" lon="5.56214">
        <ele>641</ele>
        <time>2007-06-01T12:58:54Z</time>
      </trkpt>
      <trkpt lat="45.45398" lon="5.5621">
        <ele>648</ele>
        <time>2007-06-01T12:59:57Z</time>
      </trkpt>
      <trkpt lat="45.45525" lon="5.56319">
        <ele>662</ele>
        <time>2007-06-01T13:02:20Z</time>
      </trkpt>
      <trkpt lat="45.45723" lon="5.5642">
        <ele>660</ele>
        <time>2007-06-01T13:03:22Z</time>
      </trkpt>
      <trkpt lat="45.4579" lon="5.56373">
        <ele>653</ele>
        <time>2007-06-01T13:03:35Z</time>
      </trkpt>
      <trkpt lat="45.45929" lon="5.56349">
        <ele>660</ele>
        <time>2007-06-01T13:04:27Z</time>
      </trkpt>
      <trkpt lat="45.45984" lon="5.56504">
        <ele>664</ele>
        <time>2007-06-01T13:05:03Z</time>
      </trkpt>
      <trkpt lat="45.4592" lon="5.56587">
        <ele>658</ele>
        <time>2007-06-01T13:05:22Z</time>
      </trkpt>
      <trkpt lat="45.45919" lon="5.56778">
        <ele>647</ele>
        <time>2007-06-01T13:05:37Z</time>
      </trkpt>
      <trkpt lat="45.45874" lon="5.56937">
        <ele>651</ele>
        <time>2007-06-01T13:05:53Z</time>
      </trkpt>
      <trkpt lat="45.4589" lon="5.57259">
        <ele>657</ele>
        <time>2007-06-01T13:06:28Z</time>
      </trkpt>
      <trkpt lat="45.45733" lon="5.57482">
        <ele>649</ele>
        <time>2007-06-01T13:07:05Z</time>
      </trkpt>
      <trkpt lat="45.45634" lon="5.57423">
        <ele>638</ele>
        <time>2007-06-01T13:07:26Z</time>
      </trkpt>
      <trkpt lat="45.45616" lon="5.57478">
        <ele>636</ele>
        <time>2007-06-01T13:07:33Z</time>
      </trkpt>
      <trkpt lat="45.45692" lon="5.57854">
        <ele>647</ele>
        <time>2007-06-01T13:08:45Z</time>
      </trkpt>
      <trkpt lat="45.45444" lon="5.57733">
        <ele>652</ele>
        <time>2007-06-01T13:09:58Z</time>
      </trkpt>
      <trkpt lat="45.45345" lon="5.5772">
        <ele>663</ele>
        <time>2007-06-01T13:10:46Z</time>
      </trkpt>
      <trkpt lat="45.44626" lon="5.57251">
        <ele>674</ele>
        <time>2007-06-01T13:14:52Z</time>
      </trkpt>
      <trkpt lat="45.44553" lon="5.57266">
        <ele>687</ele>
        <time>2007-06-01T13:15:36Z</time>
      </trkpt>
      <trkpt lat="45.44327" lon="5.57168">
        <ele>691</ele>
        <time>2007-06-01T13:17:45Z</time>
      </trkpt>
      <trkpt lat="45.44266" lon="5.57187">
        <ele>700</ele>
        <time>2007-06-01T13:18:15Z</time>
      </trkpt>
      <trkpt lat="45.44201" lon="5.57332">
        <ele>661</ele>
        <time>2007-06-01T13:18:54Z</time>
      </trkpt>
      <trkpt lat="45.4416" lon="5.57309">
        <ele>670</ele>
        <time>2007-06-01T13:19:12Z</time>
      </trkpt>
      <trkpt lat="45.44151" lon="5.57134">
        <ele>670</ele>
        <time>2007-06-01T13:19:49Z</time>
      </trkpt>
      <trkpt lat="45.44099" lon="5.56965">
        <ele>634</ele>
        <time>2007-06-01T13:20:34Z</time>
      </trkpt>
      <trkpt lat="45.44016" lon="5.56858">
        <ele>626</ele>
        <time>2007-06-01T13:20:59Z</time>
      </trkpt>
      <trkpt lat="45.43816" lon="5.56796">
        <ele>578</ele>
        <time>2007-06-01T13:22:28Z</time>
      </trkpt>
      <trkpt lat="45.43662" lon="5.56823">
        <ele>539</ele>
        <time>2007-06-01T13:23:33Z</time>
      </trkpt>
      <trkpt lat="45.43634" lon="5.56802">
        <ele>540</ele>
        <time>2007-06-01T13:23:47Z</time>
      </trkpt>
      <trkpt lat="45.43657" lon="5.56547">
        <ele>517</ele>
        <time>2007-06-01T13:24:24Z</time>
      </trkpt>
      <trkpt lat="45.43622" lon="5.56455">
        <ele>514</ele>
        <time>2007-06-01T13:24:47Z</time>
      </trkpt>
      <trkpt lat="45.43277" lon="5.56607">
        <ele>480</ele>
        <time>2007-06-01T13:25:25Z</time>
      </trkpt>
      <trkpt lat="45.43184" lon="5.56567">
        <ele>472</ele>
        <time>2007-06-01T13:25:35Z</time>
      </trkpt>
      <trkpt lat="45.43207" lon="5.56518">
        <ele>484</ele>
        <time>2007-06-01T13:26:34Z</time>
      </trkpt>
      <trkpt lat="45.4321" lon="5.56383">
        <ele>497</ele>
        <time>2007-06-01T13:27:57Z</time>
      </trkpt>
      <trkpt lat="45.43268" lon="5.56324">
        <ele>506</ele>
        <time>2007-06-01T13:28:53Z</time>
      </trkpt>
      <trkpt lat="45.43302" lon="5.56204">
        <ele>522</ele>
        <time>2007-06-01T13:30:17Z</time>
      </trkpt>
      <trkpt lat="45.43297" lon="5.5612">
        <ele>530</ele>
        <time>2007-06-01T13:31:14Z</time>
      </trkpt>
      <trkpt lat="45.43234" lon="5.55986">
        <ele>553</ele>
        <time>2007-06-01T13:32:57Z</time>
      </trkpt>
      <trkpt lat="45.43227" lon="5.55911">
        <ele>566</ele>
        <time>2007-06-01T13:33:48Z</time>
      </trkpt>
      <trkpt lat="45.43146" lon="5.55927">
        <ele>561</ele>
        <time>2007-06-01T13:34:11Z</time>
      </trkpt>
      <trkpt lat="45.42889" lon="5.55881">
        <ele>543</ele>
        <time>2007-06-01T13:34:55Z</time>
      </trkpt>
      <trkpt lat="45.42535" lon="5.55696">
        <ele>568</ele>
        <time>2007-06-01T13:37:59Z</time>
      </trkpt>
      <trkpt lat="45.42305" lon="5.55445">
        <ele>571</ele>
        <time>2007-06-01T13:39:26Z</time>
      </trkpt>
      <trkpt lat="45.42266" lon="5.55199">
        <ele>590</ele>
        <time>2007-06-01T13:42:45Z</time>
      </trkpt>
      <trkpt lat="45.42188" lon="5.54978">
        <ele>590</ele>
        <time>2007-06-01T13:44:09Z</time>
      </trkpt>
      <trkpt lat="45.4217" lon="5.54729">
        <ele>570</ele>
        <time>2007-06-01T13:44:52Z</time>
      </trkpt>
      <trkpt lat="45.42235" lon="5.54593">
        <ele>567</ele>
        <time>2007-06-01T13:45:17Z</time>
      </trkpt>
      <trkpt lat="45.4223" lon="5.54414">
        <ele>575</ele>
        <time>2007-06-01T13:46:07Z</time>
      </trkpt>
      <trkpt lat="45.42127" lon="5.54121">
        <ele>575</ele>
        <time>2007-06-01T13:47:04Z</time>
      </trkpt>
      <trkpt lat="45.42095" lon="5.54118">
        <ele>580</ele>
        <time>2007-06-01T13:47:17Z</time>
      </trkpt>
      <trkpt lat="45.42068" lon="5.54057">
        <ele>576</ele>
        <time>2007-06-01T13:47:32Z</time>
      </trkpt>
      <trkpt lat="45.41918" lon="5.54242">
        <ele>559</ele>
        <time>2007-06-01T13:48:02Z</time>
      </trkpt>
      <trkpt lat="45.41848" lon="5.54272">
        <ele>548</ele>
        <time>2007-06-01T13:48:13Z</time>
      </trkpt>
      <trkpt lat="45.41813" lon="5.54324">
        <ele>543</ele>
        <time>2007-06-01T13:48:23Z</time>
      </trkpt>
      <trkpt lat="45.41684" lon="5.54257">
        <ele>542</ele>
        <time>2007-06-01T13:48:54Z</time>
      </trkpt>
      <trkpt lat="45.41539" lon="5.54246">
        <ele>539</ele>
        <time>2007-06-01T13:49:44Z</time>
      </trkpt>
      <trkpt lat="45.41534" lon="5.54215">
        <ele>537</ele>
        <time>2007-06-01T13:49:53Z</time>
      </trkpt>
      <trkpt lat="45.41422" lon="5.54184">
        <ele>527</ele>
        <time>2007-06-01T13:50:10Z</time>
      </trkpt>
      <trkpt lat="45.41331" lon="5.54117">
        <ele>529</ele>
        <time>2007-06-01T13:50:28Z</time>
      </trkpt>
      <trkpt lat="45.41096" lon="5.54168">
        <ele>520</ele>
        <time>2007-06-01T13:51:07Z</time>
      </trkpt>
      <trkpt lat="45.40884" lon="5.54364">
        <ele>488</ele>
        <time>2007-06-01T13:51:40Z</time>
      </trkpt>
      <trkpt lat="45.40609" lon="5.54503">
        <ele>483</ele>
        <time>2007-06-01T13:52:18Z</time>
      </trkpt>
      <trkpt lat="45.40522" lon="5.54611">
        <ele>482</ele>
        <time>2007-06-01T13:52:40Z</time>
      </trkpt>
      <trkpt lat="45.40728" lon="5.54672">
        <ele>487</ele>
        <time>2007-06-01T13:53:35Z</time>
      </trkpt>
      <trkpt lat="45.40978" lon="5.55215">
        <ele>467</ele>
        <time>2007-06-01T13:54:45Z</time>
      </trkpt>
      <trkpt lat="45.41258" lon="5.55581">
        <ele>471</ele>
        <time>2007-06-01T13:56:16Z</time>
      </trkpt>
      <trkpt lat="45.41287" lon="5.5558">
        <ele>471</ele>
        <time>2007-06-01T13:56:18Z</time>
      </trkpt>
      <trkpt lat="45.41352" lon="5.55669">
        <ele>470</ele>
        <time>2007-06-01T13:56:24Z</time>
      </trkpt>
      <trkpt lat="45.41436" lon="5.55619">
        <ele>468</ele>
        <time>2007-06-01T13:57:35Z</time>
      </trkpt>
    </trkseg>
  </trk>
</gpx>